Time;durP1;ratioP1;P1;durP2;ratioP2;P2;SDS_P1;SDS_P2;PMS_P1;PMS_P2;Temp;Humidity;BMP_temperature;BMP_pressure;BME280_temperature;BME280_humidity;BME280_pressure;Samples;Min_cycle;Max_cycle;Signal;HPM_P1;HPM_P2
2021/07/19 00:00:50;;;;;;;;;;;;;;;26.33;69.06;98447.85;1873328;76;20097;-64
2021/07/19 00:03:24;;;;;;;;;;;;;;;26.32;69.24;98444.84;1873407;76;20344;-64
2021/07/19 00:06:18;;;;;;;;;;;;;;;26.33;69.33;98445.20;1873471;76;20209;-66
2021/07/19 00:08:53;;;;;;;;;;;;;;;26.31;69.36;98440.51;1873482;76;20466;-65
2021/07/19 00:11:27;;;;;;;;;;;;;;;26.32;69.51;98441.72;1892808;76;20092;-64
2021/07/19 00:14:02;;;;;;;;;;;;;;;26.34;69.68;98437.66;1873500;76;20093;-65
2021/07/19 00:16:37;;;;;;;;;;;;;;;26.37;69.64;98441.44;1873383;76;20098;-64
2021/07/19 00:19:30;;;;;;;;;;;;;;;26.38;69.60;98438.71;1873462;76;20208;-65
2021/07/19 00:22:07;;;;;;;;;;;;;;;26.41;69.58;98432.38;1873260;76;20184;-66
2021/07/19 00:24:42;;;;;;;;;;;;;;;26.42;69.48;98431.42;1873428;76;20093;-65
2021/07/19 00:27:36;;;;;;;;;;;;;;;26.41;69.21;98421.80;1873417;76;20097;-67
2021/07/19 00:30:17;;;;;;;;;;;;;;;26.40;69.00;98426.20;1892791;76;20096;-65
2021/07/19 00:33:11;;;;;;;;;;;;;;;26.39;68.88;98423.67;1892873;76;20096;-67
2021/07/19 00:36:05;;;;;;;;;;;;;;;26.37;68.73;98416.30;1873478;76;20359;-63
2021/07/19 00:38:40;;;;;;;;;;;;;;;26.35;68.65;98416.39;1873505;76;20098;-66
2021/07/19 00:41:15;;;;;;;;;;;;;;;26.35;68.66;98415.54;1892947;76;20346;-67
2021/07/19 00:43:50;;;;;;;;;;;;;;;26.34;68.66;98419.14;1892792;76;20351;-66
2021/07/19 00:46:44;;;;;;;;;;;;;;;26.34;68.48;98417.83;1873507;76;20212;-66
2021/07/19 00:49:21;;;;;;;;;;;;;;;26.34;68.44;98423.12;1873431;76;20093;-63
2021/07/19 00:52:03;;;;;;;;;;;;;;;26.33;68.46;98414.78;1892755;76;20116;-66
2021/07/19 00:55:00;;;;;;;;;;;;;;;26.32;68.60;98413.94;1892765;76;20212;-66
2021/07/19 00:57:41;;;;;;;;;;;;;;;26.30;68.69;98415.83;1873249;76;20101;-65
2021/07/19 01:00:17;;;;;;;;;;;;;;;26.29;68.75;98410.64;1873457;76;20113;-65
2021/07/19 01:03:11;;;;;;;;;;;;;;;26.28;68.84;98415.54;1873450;76;20208;-65
2021/07/19 01:05:46;;;;;;;;;;;;;;;26.27;68.84;98413.85;1873430;76;20097;-67
2021/07/19 01:08:22;;;;;;;;;;;;;;;26.25;69.00;98408.64;1873312;76;20097;-67
2021/07/19 01:10:57;;;;;;;;;;;;;;;26.25;69.05;98410.45;1873443;76;20097;-68
2021/07/19 01:13:51;;;;;;;;;;;;;;;26.24;69.14;98403.47;1873355;76;20098;-69
2021/07/19 01:16:27;;;;;;;;;;;;;;;26.24;69.20;98406.95;1892800;76;20096;-67
2021/07/19 01:19:22;;;;;;;;;;;;;;;26.23;69.22;98403.07;1873493;76;20168;-63
2021/07/19 01:22:44;;;;;;;;;;;;;;;26.22;69.36;98404.88;1892796;76;20454;-65
2021/07/19 01:25:38;;;;;;;;;;;;;;;26.19;69.53;98404.59;1892800;76;20207;-65
2021/07/19 01:28:35;;;;;;;;;;;;;;;26.18;69.67;98404.23;1873406;76;20299;-66
2021/07/19 01:31:34;;;;;;;;;;;;;;;26.12;69.76;98400.63;1873254;76;20101;-64
2021/07/19 01:34:16;;;;;;;;;;;;;;;26.11;69.75;98406.02;1873220;76;20101;-65
2021/07/19 01:36:55;;;;;;;;;;;;;;;26.08;69.84;98401.77;1892739;76;20101;-66
2021/07/19 01:39:36;;;;;;;;;;;;;;;26.07;69.97;98406.66;1873495;76;20140;-65
2021/07/19 01:42:28;;;;;;;;;;;;;;;26.05;69.91;98402.41;1892739;76;20207;-66
2021/07/19 01:45:06;;;;;;;;;;;;;;;26.03;69.68;98407.81;1873432;76;20097;-63
2021/07/19 01:47:41;;;;;;;;;;;;;;;26.04;69.51;98412.62;1873785;76;20462;-65
2021/07/19 01:50:16;;;;;;;;;;;;;;;26.01;69.68;98412.34;1873496;76;20216;-67
2021/07/19 01:52:51;;;;;;;;;;;;;;;26.02;69.64;98411.38;1873492;76;20344;-67
2021/07/19 01:55:46;;;;;;;;;;;;;;;26.03;69.52;98411.78;1892754;76;20097;-66
2021/07/19 01:58:21;;;;;;;;;;;;;;;26.05;69.49;98413.84;1892811;76;20453;-64
2021/07/19 02:01:20;;;;;;;;;;;;;;;26.08;69.45;98412.35;1873367;76;20101;-66
2021/07/19 02:03:55;;;;;;;;;;;;;;;26.10;69.74;98412.23;1892840;76;20092;-64
2021/07/19 02:06:31;;;;;;;;;;;;;;;26.10;69.92;98408.27;1873360;76;20102;-66
2021/07/19 02:09:25;;;;;;;;;;;;;;;26.09;69.49;98410.07;1873457;76;20348;-61
2021/07/19 02:12:27;;;;;;;;;;;;;;;26.11;69.00;98413.48;1873299;76;20101;-62
2021/07/19 02:15:18;;;;;;;;;;;;;;;26.12;68.66;98407.71;1892754;76;20116;-64
2021/07/19 02:18:12;;;;;;;;;;;;;;;26.12;68.60;98413.00;1873372;76;20343;-62
2021/07/19 02:21:06;;;;;;;;;;;;;;;26.11;68.85;98418.77;1892506;76;20203;-64
2021/07/19 02:24:06;;;;;;;;;;;;;;;26.09;69.06;98422.45;1873226;76;20097;-63
2021/07/19 02:27:08;;;;;;;;;;;;;;;26.06;69.64;98427.45;1892749;76;20199;-63
2021/07/19 02:30:04;;;;;;;;;;;;;;;26.03;69.62;98428.97;1873512;76;20363;-61
2021/07/19 02:32:40;;;;;;;;;;;;;;;26.03;69.96;98428.97;1892799;76;20351;-63
2021/07/19 02:35:36;;;;;;;;;;;;;;;26.00;70.50;98430.45;1892761;76;20203;-63
2021/07/19 02:38:11;;;;;;;;;;;;;;;25.98;70.96;98438.50;1873503;76;20208;-62
2021/07/19 02:41:11;;;;;;;;;;;;;;;25.95;71.21;98435.17;1873280;76;20180;-64
2021/07/19 02:43:48;;;;;;;;;;;;;;;25.94;71.24;98438.29;1873510;76;20094;-59
2021/07/19 02:46:55;;;;;;;;;;;;;;;25.92;71.31;98440.65;1873239;76;20356;-64
2021/07/19 02:49:31;;;;;;;;;;;;;;;25.92;71.32;98445.45;1873426;76;20101;-61
2021/07/19 02:52:07;;;;;;;;;;;;;;;25.93;71.40;98446.33;1892816;76;20093;-64
2021/07/19 02:54:41;;;;;;;;;;;;;;;25.88;73.11;98455.02;1873486;76;20093;-61
2021/07/19 02:57:38;;;;;;;;;;;;;;;25.60;73.80;98453.13;1873441;76;20101;-65
2021/07/19 03:00:14;;;;;;;;;;;;;;;25.31;74.37;98453.84;1892918;76;20203;-66
2021/07/19 03:03:14;;;;;;;;;;;;;;;25.21;74.95;98451.83;1892745;76;20101;-64
2021/07/19 03:05:53;;;;;;;;;;;;;;;25.06;75.16;98454.83;1873419;76;20089;-62
2021/07/19 03:08:34;;;;;;;;;;;;;;;24.95;75.50;98461.19;1873397;76;20208;-62
2021/07/19 03:11:38;;;;;;;;;;;;;;;24.89;75.67;98456.63;1873492;76;20097;-63
2021/07/19 03:14:14;;;;;;;;;;;;;;;24.81;75.47;98455.38;1873483;76;20204;-64
2021/07/19 03:17:10;;;;;;;;;;;;;;;24.68;75.84;98457.36;1873392;76;20102;-63
2021/07/19 03:19:47;;;;;;;;;;;;;;;24.61;76.20;98457.78;1892732;76;20101;-60
2021/07/19 03:22:24;;;;;;;;;;;;;;;24.57;76.30;98461.03;1873241;76;20101;-61
2021/07/19 03:24:59;;;;;;;;;;;;;;;24.52;76.44;98464.39;1873472;76;20462;-62
2021/07/19 03:27:36;;;;;;;;;;;;;;;24.52;76.52;98466.18;1873452;76;20097;-63
2021/07/19 03:30:31;;;;;;;;;;;;;;;24.54;76.45;98468.27;1873436;76;20348;-62
2021/07/19 03:33:06;;;;;;;;;;;;;;;24.57;76.42;98468.10;1892834;76;20211;-62
2021/07/19 03:35:43;;;;;;;;;;;;;;;24.57;76.48;98472.06;1873405;76;20144;-64
2021/07/19 03:38:37;;;;;;;;;;;;;;;24.57;76.46;98470.27;1873869;75;20244;-61
2021/07/19 03:41:13;;;;;;;;;;;;;;;24.61;76.37;98474.93;1892792;76;20097;-60
2021/07/19 03:43:49;;;;;;;;;;;;;;;24.61;76.46;98476.25;1873422;76;20093;-61
2021/07/19 03:46:24;;;;;;;;;;;;;;;24.59;76.71;98468.87;1873416;76;20093;-62
2021/07/19 03:48:59;;;;;;;;;;;;;;;24.58;76.88;98469.35;1873454;76;20094;-60
2021/07/19 03:51:54;;;;;;;;;;;;;;;24.57;77.15;98467.63;1892763;76;20211;-65
2021/07/19 03:54:29;;;;;;;;;;;;;;;24.60;77.37;98470.56;1873495;76;20455;-63
2021/07/19 03:57:05;;;;;;;;;;;;;;;24.64;77.49;98469.00;1873236;76;20097;-62
2021/07/19 03:59:40;;;;;;;;;;;;;;;24.69;77.72;98470.08;1873493;76;20097;-63
2021/07/19 04:02:17;;;;;;;;;;;;;;;24.74;77.71;98469.36;1873556;76;20204;-62
2021/07/19 04:05:15;;;;;;;;;;;;;;;24.82;77.66;98479.02;1873179;76;20347;-66
2021/07/19 04:07:50;;;;;;;;;;;;;;;24.86;77.70;98479.25;1873358;76;20097;-60
2021/07/19 04:10:49;;;;;;;;;;;;;;;24.94;77.69;98475.34;1873349;76;20097;-61
2021/07/19 04:13:23;;;;;;;;;;;;;;;25.00;77.66;98474.52;1873479;76;20208;-62
2021/07/19 04:16:20;;;;;;;;;;;;;;;25.08;77.67;98470.13;1892698;76;20100;-63
2021/07/19 04:18:54;;;;;;;;;;;;;;;25.18;77.63;98475.30;1892808;76;20204;-61
2021/07/19 04:21:30;;;;;;;;;;;;;;;25.30;77.39;98474.61;1892785;76;20346;-63
2021/07/19 04:24:07;;;;;;;;;;;;;;;25.40;77.36;98472.77;1873386;76;20093;-63
2021/07/19 04:27:02;;;;;;;;;;;;;;;25.54;77.28;98472.80;1892720;76;20100;-59
2021/07/19 04:29:56;;;;;;;;;;;;;;;25.65;77.43;98469.09;1873435;76;20204;-60
2021/07/19 04:32:30;;;;;;;;;;;;;;;25.72;77.39;98471.75;1873484;76;20093;-62
2021/07/19 04:35:14;;;;;;;;;;;;;;;25.81;77.32;98470.34;1873504;76;20212;-62
2021/07/19 04:37:53;;;;;;;;;;;;;;;25.93;77.24;98474.09;1892760;76;20101;-64
2021/07/19 04:40:50;;;;;;;;;;;;;;;26.11;76.92;98466.85;1873452;76;20208;-63
2021/07/19 04:43:44;;;;;;;;;;;;;;;26.31;76.44;98462.52;1877988;75;20301;-62
2021/07/19 04:46:28;;;;;;;;;;;;;;;26.53;75.91;98466.02;1873311;76;20208;-63
2021/07/19 04:49:03;;;;;;;;;;;;;;;26.69;75.29;98462.41;1873467;76;20208;-61
2021/07/19 04:51:56;;;;;;;;;;;;;;;26.90;74.48;98466.84;1892769;76;20253;-64
2021/07/19 04:54:37;;;;;;;;;;;;;;;27.04;73.32;98460.16;1873504;76;20447;-62
2021/07/19 04:57:28;;;;;;;;;;;;;;;27.17;72.28;98467.72;1873445;76;20208;-62
2021/07/19 05:00:05;;;;;;;;;;;;;;;27.30;72.02;98462.50;1873372;76;20352;-61
2021/07/19 05:02:41;;;;;;;;;;;;;;;27.46;71.41;98464.50;1873362;76;20117;-63
2021/07/19 05:05:18;;;;;;;;;;;;;;;27.60;70.00;98464.05;1873422;76;20097;-64
2021/07/19 05:08:14;;;;;;;;;;;;;;;27.75;69.03;98457.71;1892786;76;20104;-65
2021/07/19 05:11:08;;;;;;;;;;;;;;;27.81;67.06;98456.02;1873355;76;20355;-61
2021/07/19 05:13:44;;;;;;;;;;;;;;;27.80;66.10;98457.41;1873340;76;20097;-63
2021/07/19 05:16:20;;;;;;;;;;;;;;;27.75;65.64;98456.38;1873311;76;20101;-62
2021/07/19 05:18:55;;;;;;;;;;;;;;;27.76;65.93;98468.71;1892759;76;20339;-60
2021/07/19 05:21:48;;;;;;;;;;;;;;;27.86;65.70;98465.84;1873391;76;20351;-61
2021/07/19 05:24:43;;;;;;;;;;;;;;;27.98;65.46;98467.27;1873232;76;20098;-65
2021/07/19 05:27:25;;;;;;;;;;;;;;;28.11;64.80;98468.12;1892702;76;20124;-61
2021/07/19 05:29:59;;;;;;;;;;;;;;;28.08;64.38;98467.01;1873563;76;20093;-64
2021/07/19 05:32:35;;;;;;;;;;;;;;;28.09;63.67;98470.89;1873337;76;20101;-63
2021/07/19 05:35:10;;;;;;;;;;;;;;;28.12;63.46;98466.70;1873352;76;20200;-62
2021/07/19 05:37:46;;;;;;;;;;;;;;;28.18;63.38;98469.40;1873399;76;20344;-62
2021/07/19 05:40:44;;;;;;;;;;;;;;;28.20;63.43;98466.66;1892791;76;20140;-64
2021/07/19 05:43:19;;;;;;;;;;;;;;;28.30;63.44;98459.75;1873470;76;20351;-62
2021/07/19 05:46:13;;;;;;;;;;;;;;;28.37;63.29;98458.37;1873419;76;20101;-61
2021/07/19 05:48:47;;;;;;;;;;;;;;;28.39;63.31;98472.36;1873489;76;20200;-62
2021/07/19 05:51:22;;;;;;;;;;;;;;;28.63;62.29;98464.52;1873544;76;20216;-63
2021/07/19 05:53:56;;;;;;;;;;;;;;;29.53;60.41;98462.88;1873446;76;20097;-62
2021/07/19 05:56:34;;;;;;;;;;;;;;;30.68;57.09;98466.01;1873301;76;20098;-62
2021/07/19 05:59:10;;;;;;;;;;;;;;;32.17;52.59;98475.96;1892917;76;20092;-64
2021/07/19 06:02:06;;;;;;;;;;;;;;;33.59;48.96;98476.87;1873256;76;20102;-65
2021/07/19 06:04:41;;;;;;;;;;;;;;;34.56;46.93;98485.57;1873597;76;20204;-66
2021/07/19 06:07:15;;;;;;;;;;;;;;;35.60;44.27;98496.04;1873480;76;20462;-64
2021/07/19 06:10:11;;;;;;;;;;;;;;;36.55;41.81;98504.80;1873416;76;20208;-65
2021/07/19 06:12:46;;;;;;;;;;;;;;;37.09;40.50;98510.80;1873507;76;20093;-65
2021/07/19 06:15:20;;;;;;;;;;;;;;;37.67;39.09;98520.70;1892816;76;20156;-63
2021/07/19 06:17:55;;;;;;;;;;;;;;;38.17;38.55;98525.62;1873416;76;20097;-67
2021/07/19 06:20:30;;;;;;;;;;;;;;;38.67;36.79;98533.11;1873462;76;20140;-66
2021/07/19 06:23:04;;;;;;;;;;;;;;;38.98;36.23;98535.40;1873468;76;20204;-63
2021/07/19 06:25:42;;;;;;;;;;;;;;;39.41;35.32;98542.63;1873497;76;20094;-62
2021/07/19 06:28:36;;;;;;;;;;;;;;;39.83;35.04;98551.31;1873394;76;20208;-64
2021/07/19 06:31:12;;;;;;;;;;;;;;;40.06;34.38;98554.00;1873244;76;20094;-63
2021/07/19 06:33:46;;;;;;;;;;;;;;;40.60;33.34;98551.64;1873485;76;20209;-62
2021/07/19 06:36:22;;;;;;;;;;;;;;;40.86;32.93;98554.73;1873656;76;20102;-63
2021/07/19 06:38:57;;;;;;;;;;;;;;;41.28;32.35;98565.94;1873592;76;20098;-63
2021/07/19 06:41:32;;;;;;;;;;;;;;;41.79;31.39;98559.11;1892772;76;20211;-65
2021/07/19 06:44:06;;;;;;;;;;;;;;;41.96;31.06;98560.56;1873462;76;20212;-65
2021/07/19 06:46:59;;;;;;;;;;;;;;;41.82;31.21;98563.62;1873471;76;20101;-63
2021/07/19 06:49:34;;;;;;;;;;;;;;;42.06;31.02;98568.37;1873517;76;20205;-65
2021/07/19 06:52:08;;;;;;;;;;;;;;;42.31;30.45;98566.56;1873484;76;20144;-64
2021/07/19 06:54:42;;;;;;;;;;;;;;;42.80;30.33;98567.91;1873476;76;20204;-64
2021/07/19 06:57:18;;;;;;;;;;;;;;;44.04;28.83;98580.48;1873451;76;20208;-64
2021/07/19 07:00:12;;;;;;;;;;;;;;;44.95;27.45;98585.25;1873369;76;20209;-64
2021/07/19 07:02:47;;;;;;;;;;;;;;;45.22;26.74;98582.47;1892787;76;20097;-66
2021/07/19 07:05:42;;;;;;;;;;;;;;;44.69;26.69;98586.66;1892731;76;20211;-64
2021/07/19 07:08:16;;;;;;;;;;;;;;;42.85;28.78;98566.80;1853616;77;20218;-62
2021/07/19 07:10:58;;;;;;;;;;;;;;;41.72;30.29;98559.56;1892771;76;20096;-64
2021/07/19 07:13:32;;;;;;;;;;;;;;;41.37;31.08;98556.65;1873493;76;20212;-65
2021/07/19 07:16:08;;;;;;;;;;;;;;;42.28;29.97;98552.36;1873488;76;20356;-64
2021/07/19 07:18:42;;;;;;;;;;;;;;;43.55;28.60;98551.72;1873429;76;20094;-62
2021/07/19 07:21:17;;;;;;;;;;;;;;;44.63;27.09;98556.52;1892854;76;20101;-66
2021/07/19 07:23:54;;;;;;;;;;;;;;;45.23;26.42;98552.80;1892787;76;20093;-65
2021/07/19 07:26:49;;;;;;;;;;;;;;;45.62;26.06;98553.14;1892733;76;20223;-66
2021/07/19 07:29:24;;;;;;;;;;;;;;;45.88;25.60;98549.38;1873251;76;20098;-66
2021/07/19 07:31:59;;;;;;;;;;;;;;;45.52;25.38;98555.48;1873559;76;20212;-62
2021/07/19 07:34:34;;;;;;;;;;;;;;;44.36;26.75;98544.80;1873338;76;20093;-65
2021/07/19 07:37:12;;;;;;;;;;;;;;;44.37;26.72;98538.83;1873311;76;20101;-66
2021/07/19 07:39:47;;;;;;;;;;;;;;;44.30;26.83;98539.36;1892745;76;20101;-65
2021/07/19 07:42:22;;;;;;;;;;;;;;;44.02;26.89;98534.14;1873456;76;20141;-64
2021/07/19 07:44:58;;;;;;;;;;;;;;;42.86;28.52;98522.30;1873385;76;20093;-63
2021/07/19 07:47:42;;;;;;;;;;;;;;;42.59;29.22;98508.25;1892745;76;20374;-67
2021/07/19 07:50:35;;;;;;;;;;;;;;;44.05;27.62;98510.11;1873480;76;20204;-66
2021/07/19 07:53:10;;;;;;;;;;;;;;;45.22;26.49;98524.72;1892929;76;20097;-65
2021/07/19 07:56:05;;;;;;;;;;;;;;;45.00;26.05;98521.43;1873449;76;20098;-62
2021/07/19 07:58:40;;;;;;;;;;;;;;;43.99;27.16;98508.20;1873499;76;20097;-67
2021/07/19 08:01:33;;;;;;;;;;;;;;;43.23;27.93;98484.02;1873441;76;20455;-64
2021/07/19 08:04:30;;;;;;;;;;;;;;;42.34;29.02;98463.09;1873471;76;20460;-63
2021/07/19 08:07:05;;;;;;;;;;;;;;;42.01;29.82;98453.73;1892779;76;20207;-65
2021/07/19 08:09:39;;;;;;;;;;;;;;;41.03;30.87;98452.52;1892812;76;20347;-64
2021/07/19 08:12:13;;;;;;;;;;;;;;;40.25;32.11;98438.62;1873481;76;20093;-66
2021/07/19 08:14:48;;;;;;;;;;;;;;;39.31;33.43;98432.65;1873447;76;20377;-62
2021/07/19 08:17:21;;;;;;;;;;;;;;;38.26;35.14;98433.45;1892755;76;20241;-63
2021/07/19 08:19:57;;;;;;;;;;;;;;;36.51;38.18;98400.29;1873515;76;20216;-63
2021/07/19 08:22:31;;;;;;;;;;;;;;;34.57;42.00;98412.70;1873508;76;20216;-64
2021/07/19 08:25:25;;;;;;;;;;;;;;;32.90;45.37;98413.07;1873369;76;20097;-63
2021/07/19 08:28:00;;;;;;;;;;;;;;;32.05;47.82;98399.59;1873418;76;20094;-62
2021/07/19 08:30:35;;;;;;;;;;;;;;;31.17;50.35;98408.78;1892743;76;20204;-63
2021/07/19 08:33:10;;;;;;;;;;;;;;;30.08;52.05;98384.20;1873426;76;20097;-66
2021/07/19 08:35:46;;;;;;;;;;;;;;;28.48;59.67;98419.15;1892748;76;20355;-65
2021/07/19 08:38:21;;;;;;;;;;;;;;;26.66;67.78;98397.28;1873484;76;20208;-66
2021/07/19 08:40:56;;;;;;;;;;;;;;;25.07;75.34;98449.95;1873396;76;20347;-66
2021/07/19 08:43:33;;;;;;;;;;;;;;;23.94;80.95;98488.07;1873485;76;20093;-66
2021/07/19 08:46:09;;;;;;;;;;;;;;;23.15;85.68;98526.59;1892748;76;20351;-66
2021/07/19 08:49:07;;;;;;;;;;;;;;;22.35;91.57;98669.14;1873286;76;20097;-62
2021/07/19 08:52:01;;;;;;;;;;;;;;;21.71;92.47;98609.06;1873383;76;20102;-64
2021/07/19 08:54:37;;;;;;;;;;;;;;;21.45;94.61;98637.20;1892775;76;20207;-62
2021/07/19 08:57:12;;;;;;;;;;;;;;;21.19;95.47;98612.36;1892873;76;20093;-64
2021/07/19 08:59:48;;;;;;;;;;;;;;;20.87;97.08;98588.66;1873514;76;20352;-61
2021/07/19 09:02:44;;;;;;;;;;;;;;;20.41;96.77;98647.48;1883499;75;20140;-61
2021/07/19 09:05:18;;;;;;;;;;;;;;;20.16;96.91;98657.46;1892766;76;20215;-62
2021/07/19 09:08:00;;;;;;;;;;;;;;;20.06;97.01;98585.32;1892710;76;20490;-61
2021/07/19 09:10:35;;;;;;;;;;;;;;;20.19;95.98;98556.09;1873468;76;20098;-62
2021/07/19 09:13:29;;;;;;;;;;;;;;;20.40;95.08;98533.05;1873321;76;20209;-60
2021/07/19 09:16:04;;;;;;;;;;;;;;;20.30;96.32;98547.39;1873411;76;20094;-63
2021/07/19 09:19:08;;;;;;;;;;;;;;;20.12;97.51;98557.62;1892735;76;20200;-63
2021/07/19 09:21:47;;;;;;;;;;;;;;;20.02;97.42;98570.60;1873289;76;20097;-61
2021/07/19 09:24:24;;;;;;;;;;;;;;;20.03;98.04;98555.30;1873452;76;20208;-63
2021/07/19 09:26:59;;;;;;;;;;;;;;;20.05;98.25;98554.80;1873396;76;20093;-61
2021/07/19 09:29:53;;;;;;;;;;;;;;;20.11;98.39;98574.69;1873378;76;20097;-61
2021/07/19 09:32:27;;;;;;;;;;;;;;;20.14;98.49;98595.54;1892783;76;20199;-60
2021/07/19 09:35:10;;;;;;;;;;;;;;;20.24;99.31;98586.92;1892817;76;20092;-61
2021/07/19 09:37:46;;;;;;;;;;;;;;;20.29;99.75;98554.40;1873328;76;20098;-62
2021/07/19 09:40:42;;;;;;;;;;;;;;;20.32;99.92;98540.33;1892823;76;20093;-62
2021/07/19 09:43:37;;;;;;;;;;;;;;;20.42;100.00;98539.55;1873412;76;20097;-61
2021/07/19 09:46:32;;;;;;;;;;;;;;;20.52;100.00;98566.69;1873416;76;20204;-60
2021/07/19 09:49:14;;;;;;;;;;;;;;;20.58;100.00;98583.56;1892841;76;20462;-60
2021/07/19 09:51:53;;;;;;;;;;;;;;;20.56;100.00;98585.38;1873386;76;20093;-62
2021/07/19 09:54:46;;;;;;;;;;;;;;;20.58;100.00;98591.42;1873396;76;20208;-60
2021/07/19 09:57:23;;;;;;;;;;;;;;;20.64;100.00;98603.91;1848866;76;20369;-60
2021/07/19 09:59:58;;;;;;;;;;;;;;;20.73;100.00;98591.77;1892755;76;20211;-61
2021/07/19 10:02:41;;;;;;;;;;;;;;;20.80;100.00;98573.59;1892863;76;20113;-62
2021/07/19 10:05:35;;;;;;;;;;;;;;;20.91;100.00;98572.72;1873410;76;20093;-64
2021/07/19 10:08:28;;;;;;;;;;;;;;;20.98;99.76;98574.20;1873440;76;20101;-62
2021/07/19 10:11:15;;;;;;;;;;;;;;;21.06;99.41;98592.28;1873361;76;20351;-63
2021/07/19 10:14:08;;;;;;;;;;;;;;;21.08;99.31;98594.40;1892740;76;20208;-59
2021/07/19 10:17:03;;;;;;;;;;;;;;;21.16;99.13;98590.17;1892692;76;20245;-62
2021/07/19 10:19:57;;;;;;;;;;;;;;;21.29;98.80;98594.03;1873388;76;20208;-63
2021/07/19 10:22:32;;;;;;;;;;;;;;;21.36;98.23;98589.41;1892736;76;20211;-61
2021/07/19 10:25:25;;;;;;;;;;;;;;;21.42;97.71;98579.58;1873442;76;20204;-62
2021/07/19 10:27:59;;;;;;;;;;;;;;;21.48;96.99;98585.50;1873417;76;20208;-62
2021/07/19 10:30:54;;;;;;;;;;;;;;;21.49;97.20;98583.25;1873362;76;20209;-62
2021/07/19 10:33:30;;;;;;;;;;;;;;;21.42;97.37;98579.58;1873302;76;20097;-62
2021/07/19 10:36:06;;;;;;;;;;;;;;;21.40;97.68;98570.89;1873374;76;20208;-62
2021/07/19 10:39:06;;;;;;;;;;;;;;;21.38;98.27;98581.03;1892645;76;20203;-65
2021/07/19 10:41:42;;;;;;;;;;;;;;;21.38;98.54;98609.47;1873218;76;20135;-64
2021/07/19 10:44:40;;;;;;;;;;;;;;;21.48;99.16;98644.11;1892659;76;20203;-62
2021/07/19 10:47:52;;;;;;;;;;;;;;;21.61;99.79;98662.87;1873468;76;20098;-62
2021/07/19 10:50:28;;;;;;;;;;;;;;;21.71;100.00;98693.11;1892713;76;20104;-59
2021/07/19 10:53:05;;;;;;;;;;;;;;;21.73;100.00;98721.50;1892754;76;20101;-60
2021/07/19 10:55:39;;;;;;;;;;;;;;;21.75;100.00;98727.98;1892726;76;20219;-60
2021/07/19 11:01:04;;;;;;;;;;;;;;;21.71;99.95;98682.61;1873247;76;20101;-63
2021/07/19 11:03:39;;;;;;;;;;;;;;;21.75;99.73;98635.59;1837823;77;20218;-59
2021/07/19 11:06:33;;;;;;;;;;;;;;;21.58;99.05;98559.27;1873295;76;20097;-60
2021/07/19 11:09:09;;;;;;;;;;;;;;;21.32;99.54;98509.95;1873379;76;20351;-63
2021/07/19 11:11:44;;;;;;;;;;;;;;;21.05;100.00;98546.45;1873472;76;20258;-62
2021/07/19 11:14:21;;;;;;;;;;;;;;;20.84;100.00;98519.23;1892786;76;20207;-62
2021/07/19 11:16:56;;;;;;;;;;;;;;;20.81;100.00;98496.61;1873439;76;20101;-61
2021/07/19 11:19:36;;;;;;;;;;;;;;;20.93;91.34;98492.20;1892815;76;20453;-63
2021/07/19 11:22:26;;;;;;;;;;;;;;;21.12;93.31;98484.95;1892740;76;20211;-63
2021/07/19 11:25:10;;;;;;;;;;;;;;;21.08;95.41;98478.95;1892799;76;20212;-63
2021/07/19 11:27:46;;;;;;;;;;;;;;;21.12;96.46;98481.02;1892877;76;20096;-61
2021/07/19 11:30:25;;;;;;;;;;;;;;;21.16;97.40;98508.83;1873307;76;20132;-63
2021/07/19 11:33:02;;;;;;;;;;;;;;;21.12;98.95;98527.78;1873490;76;20208;-65
2021/07/19 11:35:38;;;;;;;;;;;;;;;21.11;99.93;98540.95;1873404;76;20098;-65
2021/07/19 11:38:14;;;;;;;;;;;;;;;21.13;100.00;98532.57;1892770;76;20207;-63
2021/07/19 11:40:49;;;;;;;;;;;;;;;21.20;100.00;98544.08;1892814;76;20216;-63
2021/07/19 11:43:29;;;;;;;;;;;;;;;21.25;100.00;98539.97;1873386;76;20094;-65
2021/07/19 11:46:37;;;;;;;;;;;;;;;21.34;100.00;98530.40;1873359;76;20097;-61
2021/07/19 11:49:25;;;;;;;;;;;;;;;21.54;100.00;98530.95;1873400;76;20355;-63
2021/07/19 11:52:41;;;;;;;;;;;;;;;21.75;100.00;98524.42;1877976;75;20159;-64
2021/07/19 11:55:25;;;;;;;;;;;;;;;21.89;100.00;98528.19;1873469;76;20204;-65
2021/07/19 11:58:03;;;;;;;;;;;;;;;22.02;99.58;98537.72;1873429;76;20459;-65
2021/07/19 12:00:44;;;;;;;;;;;;;;;22.16;99.09;98546.78;1872624;76;20212;-66
2021/07/19 12:03:38;;;;;;;;;;;;;;;22.36;99.19;98543.32;1873614;76;20098;-63
2021/07/19 12:06:13;;;;;;;;;;;;;;;22.52;98.42;98547.00;1873472;76;20355;-64
2021/07/19 12:09:08;;;;;;;;;;;;;;;22.68;98.09;98546.70;1873484;76;20208;-66
2021/07/19 12:11:53;;;;;;;;;;;;;;;22.90;97.71;98548.38;1892757;76;20442;-63
2021/07/19 12:14:28;;;;;;;;;;;;;;;23.11;97.31;98551.34;1873495;76;20250;-62
2021/07/19 12:17:30;;;;;;;;;;;;;;;23.33;96.64;98541.98;1892785;76;20215;-63
2021/07/19 12:20:06;;;;;;;;;;;;;;;23.49;95.09;98532.02;1892794;76;20097;-65
2021/07/19 12:23:01;;;;;;;;;;;;;;;23.69;93.31;98525.78;1873220;76;20101;-62
2021/07/19 12:26:01;;;;;;;;;;;;;;;23.80;92.20;98520.84;1892691;76;20212;-66
2021/07/19 12:28:35;;;;;;;;;;;;;;;23.82;91.21;98521.16;1873576;76;20094;-63
2021/07/19 12:31:34;;;;;;;;;;;;;;;23.91;91.70;98521.14;1873301;76;20101;-65
2021/07/19 12:34:14;;;;;;;;;;;;;;;23.99;90.64;98520.31;1873483;76;20208;-61
2021/07/19 12:37:03;;;;;;;;;;;;;;;24.02;89.69;98517.99;1892767;76;20207;-62
2021/07/19 12:39:57;;;;;;;;;;;;;;;24.11;89.51;98517.97;1873463;76;20208;-64
2021/07/19 12:42:32;;;;;;;;;;;;;;;24.25;88.97;98528.20;1873561;76;20208;-62
2021/07/19 12:45:25;;;;;;;;;;;;;;;24.39;89.39;98538.02;1873399;76;20213;-66
2021/07/19 12:48:01;;;;;;;;;;;;;;;24.57;89.15;98544.61;1873401;76;20351;-62
2021/07/19 12:50:36;;;;;;;;;;;;;;;24.73;88.64;98534.09;1873405;76;20184;-66
2021/07/19 12:53:15;;;;;;;;;;;;;;;24.82;87.76;98535.77;1892851;76;20215;-65
2021/07/19 12:55:50;;;;;;;;;;;;;;;24.91;87.38;98533.11;1873370;76;20356;-64
2021/07/19 12:58:25;;;;;;;;;;;;;;;24.98;86.30;98525.69;1873488;76;20348;-66
2021/07/19 13:01:10;;;;;;;;;;;;;;;25.16;86.24;98526.02;1873480;76;20093;-64
2021/07/19 13:03:46;;;;;;;;;;;;;;;25.32;85.76;98518.96;1873510;76;20101;-66
2021/07/19 13:06:43;;;;;;;;;;;;;;;25.56;84.90;98529.06;1873382;76;20102;-64
2021/07/19 13:09:26;;;;;;;;;;;;;;;25.52;83.26;98524.91;1873544;76;20204;-68
2021/07/19 13:12:08;;;;;;;;;;;;;;;25.42;81.58;98521.09;1873231;76;20348;-62
2021/07/19 13:14:45;;;;;;;;;;;;;;;25.40;81.91;98524.28;1873535;76;20098;-66
2021/07/19 13:17:38;;;;;;;;;;;;;;;25.32;81.57;98522.08;1892730;76;20568;-63
2021/07/19 13:20:17;;;;;;;;;;;;;;;25.28;81.94;98522.70;1892829;76;20097;-64
2021/07/19 13:22:51;;;;;;;;;;;;;;;25.36;82.05;98519.62;1873468;76;20208;-63
2021/07/19 13:25:26;;;;;;;;;;;;;;;25.53;82.01;98523.48;1873461;76;20204;-65
2021/07/19 13:28:01;;;;;;;;;;;;;;;25.64;82.31;98518.89;1892786;76;20093;-67
2021/07/19 13:30:54;;;;;;;;;;;;;;;25.65;82.29;98510.52;1873410;76;20247;-64
2021/07/19 13:33:30;;;;;;;;;;;;;;;25.64;80.28;98510.97;1892741;76;20203;-64
2021/07/19 13:36:05;;;;;;;;;;;;;;;25.65;79.38;98517.98;1873310;76;20097;-63
2021/07/19 13:38:42;;;;;;;;;;;;;;;25.69;79.81;98508.91;1873461;76;20204;-65
2021/07/19 13:41:17;;;;;;;;;;;;;;;25.86;78.44;98515.05;1893076;76;20204;-68
2021/07/19 13:44:00;;;;;;;;;;;;;;;25.99;77.93;98513.38;1873593;76;20097;-66
2021/07/19 13:46:41;;;;;;;;;;;;;;;25.97;76.76;98516.58;1872535;76;20714;-65
2021/07/19 13:49:35;;;;;;;;;;;;;;;25.96;76.80;98516.21;1873456;76;20454;-69
2021/07/19 13:52:11;;;;;;;;;;;;;;;26.00;76.96;98512.42;1892749;76;20096;-65
2021/07/19 13:54:47;;;;;;;;;;;;;;;26.09;75.33;98513.21;1873241;76;20098;-67
2021/07/19 13:57:22;;;;;;;;;;;;;;;26.09;73.28;98507.92;1892777;76;20097;-67
2021/07/19 13:59:57;;;;;;;;;;;;;;;26.06;72.77;98513.40;1873401;76;20093;-64
2021/07/19 14:02:32;;;;;;;;;;;;;;;26.05;71.87;98513.00;1853569;77;20099;-68
2021/07/19 14:05:07;;;;;;;;;;;;;;;26.02;71.57;98505.25;1873439;76;20208;-65
2021/07/19 14:07:43;;;;;;;;;;;;;;;25.99;72.25;98501.48;1873286;76;20097;-64